sensor_id;sensor_type;location;lat;lon;timestamp;temperature;humidity
13375;DHT22;6756;51.354;15.754;2022-12-17T00:04:14;-4.70;99.90
13375;DHT22;6756;51.354;15.754;2022-12-17T00:08:33;-4.70;99.90
13375;DHT22;6756;51.354;15.754;2022-12-17T00:12:52;-4.70;99.90
13375;DHT22;6756;51.354;15.754;2022-12-17T00:17:19;-4.70;1.00
13375;DHT22;6756;51.354;15.754;2022-12-17T00:21:38;-4.70;52.70
13375;DHT22;6756;51.354;15.754;2022-12-17T00:25:57;-4.70;1.00
13375;DHT22;6756;51.354;15.754;2022-12-17T00:30:16;-4.70;99.90
13375;DHT22;6756;51.354;15.754;2022-12-17T00:34:36;-4.70;10.40
13375;DHT22;6756;51.354;15.754;2022-12-17T00:38:55;-4.70;7.60
13375;DHT22;6756;51.354;15.754;2022-12-17T00:43:14;-4.70;40.20
13375;DHT22;6756;51.354;15.754;2022-12-17T00:47:34;-4.70;99.90
13375;DHT22;6756;51.354;15.754;2022-12-17T00:51:53;-4.70;99.90
13375;DHT22;6756;51.354;15.754;2022-12-17T00:56:12;-4.80;99.90
13375;DHT22;6756;51.354;15.754;2022-12-17T01:00:31;-4.80;99.90
13375;DHT22;6756;51.354;15.754;2022-12-17T01:04:50;-4.80;99.90
13375;DHT22;6756;51.354;15.754;2022-12-17T01:09:10;-4.80;1.00
13375;DHT22;6756;51.354;15.754;2022-12-17T01:13:29;-4.80;99.90
13375;DHT22;6756;51.354;15.754;2022-12-17T01:17:48;-4.80;1.00
13375;DHT22;6756;51.354;15.754;2022-12-17T01:22:07;-4.90;99.90
13375;DHT22;6756;51.354;15.754;2022-12-17T01:26:27;-4.90;99.90
13375;DHT22;6756;51.354;15.754;2022-12-17T01:30:46;-4.90;99.90
13375;DHT22;6756;51.354;15.754;2022-12-17T01:35:05;-4.90;99.90
13375;DHT22;6756;51.354;15.754;2022-12-17T01:39:25;-4.90;73.90
13375;DHT22;6756;51.354;15.754;2022-12-17T01:43:44;-4.90;99.90
13375;DHT22;6756;51.354;15.754;2022-12-17T01:48:11;-4.90;99.90
13375;DHT22;6756;51.354;15.754;2022-12-17T01:52:31;-4.90;1.00
13375;DHT22;6756;51.354;15.754;2022-12-17T01:56:50;-4.80;99.90
13375;DHT22;6756;51.354;15.754;2022-12-17T02:01:10;-4.80;99.90
13375;DHT22;6756;51.354;15.754;2022-12-17T02:05:44;-4.80;99.90
13375;DHT22;6756;51.354;15.754;2022-12-17T02:14:59;-4.90;99.90
13375;DHT22;6756;51.354;15.754;2022-12-17T02:24:16;-4.90;99.90
13375;DHT22;6756;51.354;15.754;2022-12-17T02:28:42;-4.90;99.90
13375;DHT22;6756;51.354;15.754;2022-12-17T02:33:03;-4.90;1.00
13375;DHT22;6756;51.354;15.754;2022-12-17T02:37:23;-4.80;99.90
13375;DHT22;6756;51.354;15.754;2022-12-17T02:41:49;-4.80;1.00
13375;DHT22;6756;51.354;15.754;2022-12-17T02:46:09;-4.80;99.90
13375;DHT22;6756;51.354;15.754;2022-12-17T02:50:29;-4.80;4.80
13375;DHT22;6756;51.354;15.754;2022-12-17T02:54:48;-4.80;99.90
13375;DHT22;6756;51.354;15.754;2022-12-17T02:59:08;-4.80;99.90
13375;DHT22;6756;51.354;15.754;2022-12-17T03:03:27;-4.80;77.00
13375;DHT22;6756;51.354;15.754;2022-12-17T03:07:46;-4.80;1.00
13375;DHT22;6756;51.354;15.754;2022-12-17T03:12:05;-4.80;99.90
13375;DHT22;6756;51.354;15.754;2022-12-17T03:16:25;-4.80;99.90
13375;DHT22;6756;51.354;15.754;2022-12-17T03:20:44;-4.80;99.90
13375;DHT22;6756;51.354;15.754;2022-12-17T03:25:03;-4.80;1.00
13375;DHT22;6756;51.354;15.754;2022-12-17T03:29:23;-4.80;1.00
13375;DHT22;6756;51.354;15.754;2022-12-17T03:33:42;-4.80;99.90
13375;DHT22;6756;51.354;15.754;2022-12-17T03:38:05;-4.80;1.00
13375;DHT22;6756;51.354;15.754;2022-12-17T03:42:24;-4.80;1.00
13375;DHT22;6756;51.354;15.754;2022-12-17T03:46:44;-4.90;99.90
13375;DHT22;6756;51.354;15.754;2022-12-17T03:51:03;-4.90;47.30
13375;DHT22;6756;51.354;15.754;2022-12-17T03:55:22;-4.90;38.10
13375;DHT22;6756;51.354;15.754;2022-12-17T03:59:41;-4.90;99.90
13375;DHT22;6756;51.354;15.754;2022-12-17T04:04:00;-5.00;1.00
13375;DHT22;6756;51.354;15.754;2022-12-17T04:08:20;-4.90;99.90
13375;DHT22;6756;51.354;15.754;2022-12-17T04:12:39;-4.90;1.00
13375;DHT22;6756;51.354;15.754;2022-12-17T04:16:58;-4.90;1.00
13375;DHT22;6756;51.354;15.754;2022-12-17T04:21:17;-5.00;90.80
13375;DHT22;6756;51.354;15.754;2022-12-17T04:25:36;-5.00;1.00
13375;DHT22;6756;51.354;15.754;2022-12-17T04:29:56;-5.00;1.00
13375;DHT22;6756;51.354;15.754;2022-12-17T04:34:15;-4.90;99.90
13375;DHT22;6756;51.354;15.754;2022-12-17T04:38:34;-4.90;1.00
13375;DHT22;6756;51.354;15.754;2022-12-17T04:42:54;-4.90;1.00
13375;DHT22;6756;51.354;15.754;2022-12-17T04:47:13;-4.90;1.00
13375;DHT22;6756;51.354;15.754;2022-12-17T04:51:32;-4.90;99.90
13375;DHT22;6756;51.354;15.754;2022-12-17T04:55:53;-4.80;99.90
13375;DHT22;6756;51.354;15.754;2022-12-17T05:00:13;-4.80;67.10
13375;DHT22;6756;51.354;15.754;2022-12-17T05:04:34;-4.80;1.00
13375;DHT22;6756;51.354;15.754;2022-12-17T05:08:53;-4.80;32.10
13375;DHT22;6756;51.354;15.754;2022-12-17T05:13:12;-4.80;99.90
13375;DHT22;6756;51.354;15.754;2022-12-17T05:17:31;-4.80;1.00
13375;DHT22;6756;51.354;15.754;2022-12-17T05:21:51;-4.80;99.90
13375;DHT22;6756;51.354;15.754;2022-12-17T05:26:21;-4.80;99.90
13375;DHT22;6756;51.354;15.754;2022-12-17T05:30:41;-4.70;99.90
13375;DHT22;6756;51.354;15.754;2022-12-17T05:35:00;-4.70;99.90
13375;DHT22;6756;51.354;15.754;2022-12-17T05:39:19;-4.70;1.00
13375;DHT22;6756;51.354;15.754;2022-12-17T05:43:38;-4.70;99.90
13375;DHT22;6756;51.354;15.754;2022-12-17T05:47:57;-4.70;99.90
13375;DHT22;6756;51.354;15.754;2022-12-17T05:52:16;-4.80;99.90
13375;DHT22;6756;51.354;15.754;2022-12-17T05:56:36;-4.80;1.00
13375;DHT22;6756;51.354;15.754;2022-12-17T06:00:59;-4.80;99.90
13375;DHT22;6756;51.354;15.754;2022-12-17T06:05:19;-4.80;99.90
13375;DHT22;6756;51.354;15.754;2022-12-17T06:09:38;-4.80;99.90
13375;DHT22;6756;51.354;15.754;2022-12-17T06:13:57;-4.80;1.00
13375;DHT22;6756;51.354;15.754;2022-12-17T06:18:16;-4.80;1.00
13375;DHT22;6756;51.354;15.754;2022-12-17T06:22:35;-4.80;31.10
13375;DHT22;6756;51.354;15.754;2022-12-17T06:26:55;-4.80;99.90
13375;DHT22;6756;51.354;15.754;2022-12-17T06:31:14;-4.80;99.90
13375;DHT22;6756;51.354;15.754;2022-12-17T06:35:33;-4.80;99.90
13375;DHT22;6756;51.354;15.754;2022-12-17T06:39:53;-4.80;99.90
13375;DHT22;6756;51.354;15.754;2022-12-17T06:44:12;-4.80;99.90
13375;DHT22;6756;51.354;15.754;2022-12-17T06:48:31;-4.80;99.90
13375;DHT22;6756;51.354;15.754;2022-12-17T06:53:04;-4.70;99.90
13375;DHT22;6756;51.354;15.754;2022-12-17T06:57:24;-4.70;99.90
13375;DHT22;6756;51.354;15.754;2022-12-17T07:01:44;-4.60;99.90
13375;DHT22;6756;51.354;15.754;2022-12-17T07:06:03;-4.60;99.90
13375;DHT22;6756;51.354;15.754;2022-12-17T07:10:22;-4.70;99.90
13375;DHT22;6756;51.354;15.754;2022-12-17T07:14:42;-4.60;99.90
13375;DHT22;6756;51.354;15.754;2022-12-17T07:19:01;-4.60;99.90
13375;DHT22;6756;51.354;15.754;2022-12-17T07:23:20;-4.50;99.90
13375;DHT22;6756;51.354;15.754;2022-12-17T07:27:39;-4.50;99.90
13375;DHT22;6756;51.354;15.754;2022-12-17T07:31:59;-4.50;99.90
13375;DHT22;6756;51.354;15.754;2022-12-17T07:36:18;-4.50;99.90
13375;DHT22;6756;51.354;15.754;2022-12-17T07:40:37;-4.40;99.90
13375;DHT22;6756;51.354;15.754;2022-12-17T07:44:56;-4.30;99.90
13375;DHT22;6756;51.354;15.754;2022-12-17T07:49:15;-4.30;99.90
13375;DHT22;6756;51.354;15.754;2022-12-17T07:53:35;-4.30;99.90
13375;DHT22;6756;51.354;15.754;2022-12-17T07:58:06;-4.30;99.90
13375;DHT22;6756;51.354;15.754;2022-12-17T08:02:26;-4.20;99.90
13375;DHT22;6756;51.354;15.754;2022-12-17T08:06:45;-4.20;99.90
13375;DHT22;6756;51.354;15.754;2022-12-17T08:11:04;-4.10;99.90
13375;DHT22;6756;51.354;15.754;2022-12-17T08:15:23;-4.00;99.90
13375;DHT22;6756;51.354;15.754;2022-12-17T08:19:43;-4.00;99.90
13375;DHT22;6756;51.354;15.754;2022-12-17T08:24:02;-4.00;99.90
13375;DHT22;6756;51.354;15.754;2022-12-17T08:28:21;-3.90;99.90
13375;DHT22;6756;51.354;15.754;2022-12-17T08:32:41;-3.90;1.00
13375;DHT22;6756;51.354;15.754;2022-12-17T08:37:00;-3.90;1.00
13375;DHT22;6756;51.354;15.754;2022-12-17T08:41:19;-3.80;99.90
13375;DHT22;6756;51.354;15.754;2022-12-17T08:45:38;-3.80;99.90
13375;DHT22;6756;51.354;15.754;2022-12-17T08:49:57;-3.80;1.00
13375;DHT22;6756;51.354;15.754;2022-12-17T08:54:17;-3.70;1.00
13375;DHT22;6756;51.354;15.754;2022-12-17T08:58:36;-3.70;99.90
13375;DHT22;6756;51.354;15.754;2022-12-17T09:02:59;-3.70;99.90
13375;DHT22;6756;51.354;15.754;2022-12-17T09:07:19;-3.70;99.90
13375;DHT22;6756;51.354;15.754;2022-12-17T09:11:39;-3.60;99.90
13375;DHT22;6756;51.354;15.754;2022-12-17T09:15:58;-3.60;99.90
13375;DHT22;6756;51.354;15.754;2022-12-17T09:20:17;-3.60;1.00
13375;DHT22;6756;51.354;15.754;2022-12-17T09:24:37;-3.50;32.70
13375;DHT22;6756;51.354;15.754;2022-12-17T09:28:56;-3.60;99.90
13375;DHT22;6756;51.354;15.754;2022-12-17T09:33:16;-3.50;99.90
13375;DHT22;6756;51.354;15.754;2022-12-17T09:37:43;-3.50;99.90
13375;DHT22;6756;51.354;15.754;2022-12-17T09:42:37;-3.40;1.00
13375;DHT22;6756;51.354;15.754;2022-12-17T09:51:40;-3.40;1.00
13375;DHT22;6756;51.354;15.754;2022-12-17T09:56:00;-3.30;99.90
13375;DHT22;6756;51.354;15.754;2022-12-17T10:00:26;-3.40;99.90
13375;DHT22;6756;51.354;15.754;2022-12-17T10:04:47;-3.40;85.10
13375;DHT22;6756;51.354;15.754;2022-12-17T10:09:16;-3.40;1.00
13375;DHT22;6756;51.354;15.754;2022-12-17T10:13:35;-3.40;99.90
13375;DHT22;6756;51.354;15.754;2022-12-17T10:17:54;-3.30;99.90
13375;DHT22;6756;51.354;15.754;2022-12-17T10:22:16;-3.30;1.00
13375;DHT22;6756;51.354;15.754;2022-12-17T10:26:35;-3.30;99.90
13375;DHT22;6756;51.354;15.754;2022-12-17T10:30:55;-3.30;22.60
13375;DHT22;6756;51.354;15.754;2022-12-17T10:35:26;-3.30;75.40
13375;DHT22;6756;51.354;15.754;2022-12-17T10:39:55;-3.40;99.90
13375;DHT22;6756;51.354;15.754;2022-12-17T10:48:44;-3.40;99.90
13375;DHT22;6756;51.354;15.754;2022-12-17T10:53:26;-3.50;99.90
13375;DHT22;6756;51.354;15.754;2022-12-17T10:57:46;-3.50;99.90
13375;DHT22;6756;51.354;15.754;2022-12-17T11:02:27;-3.50;99.90
13375;DHT22;6756;51.354;15.754;2022-12-17T11:06:52;-3.40;99.90
13375;DHT22;6756;51.354;15.754;2022-12-17T11:11:14;-3.40;99.90
13375;DHT22;6756;51.354;15.754;2022-12-17T11:15:42;-3.30;1.00
13375;DHT22;6756;51.354;15.754;2022-12-17T11:20:07;-3.30;99.90
13375;DHT22;6756;51.354;15.754;2022-12-17T11:25:02;-3.30;99.90
13375;DHT22;6756;51.354;15.754;2022-12-17T11:29:23;-3.20;1.00
13375;DHT22;6756;51.354;15.754;2022-12-17T11:33:55;-3.20;30.00
13375;DHT22;6756;51.354;15.754;2022-12-17T11:38:38;-3.30;1.00
13375;DHT22;6756;51.354;15.754;2022-12-17T11:43:05;-3.30;1.00
13375;DHT22;6756;51.354;15.754;2022-12-17T11:47:53;-3.20;1.00
13375;DHT22;6756;51.354;15.754;2022-12-17T11:52:48;-3.20;99.90
13375;DHT22;6756;51.354;15.754;2022-12-17T11:57:28;-3.20;99.90
13375;DHT22;6756;51.354;15.754;2022-12-17T12:07:02;-3.10;68.60
13375;DHT22;6756;51.354;15.754;2022-12-17T12:11:44;-3.20;99.90
13375;DHT22;6756;51.354;15.754;2022-12-17T12:16:22;-3.10;99.90
13375;DHT22;6756;51.354;15.754;2022-12-17T12:26:12;-3.00;99.90
13375;DHT22;6756;51.354;15.754;2022-12-17T12:30:58;-3.00;99.90
13375;DHT22;6756;51.354;15.754;2022-12-17T12:35:23;-3.10;99.90
13375;DHT22;6756;51.354;15.754;2022-12-17T12:39:54;-3.10;1.00
13375;DHT22;6756;51.354;15.754;2022-12-17T12:44:44;-3.10;99.90
13375;DHT22;6756;51.354;15.754;2022-12-17T12:53:41;-3.00;99.90
13375;DHT22;6756;51.354;15.754;2022-12-17T12:58:05;-3.00;99.90
13375;DHT22;6756;51.354;15.754;2022-12-17T13:02:44;-3.00;99.90
13375;DHT22;6756;51.354;15.754;2022-12-17T13:07:17;-3.10;99.90
13375;DHT22;6756;51.354;15.754;2022-12-17T13:11:36;-3.10;99.90
13375;DHT22;6756;51.354;15.754;2022-12-17T13:15:43;-3.10;99.90
13375;DHT22;6756;51.354;15.754;2022-12-17T13:24:09;-3.10;97.00
13375;DHT22;6756;51.354;15.754;2022-12-17T13:28:28;-3.10;99.90
13375;DHT22;6756;51.354;15.754;2022-12-17T13:32:37;-3.10;92.70
13375;DHT22;6756;51.354;15.754;2022-12-17T13:36:45;-3.00;36.40
13375;DHT22;6756;51.354;15.754;2022-12-17T13:41:08;-3.00;3.30
13375;DHT22;6756;51.354;15.754;2022-12-17T13:45:18;-3.00;1.00
13375;DHT22;6756;51.354;15.754;2022-12-17T13:53:21;-3.00;1.00
13375;DHT22;6756;51.354;15.754;2022-12-17T13:57:24;-3.00;1.00
13375;DHT22;6756;51.354;15.754;2022-12-17T14:01:25;-3.00;1.00
13375;DHT22;6756;51.354;15.754;2022-12-17T14:05:30;-3.10;1.00
13375;DHT22;6756;51.354;15.754;2022-12-17T14:09:38;-3.10;1.00
13375;DHT22;6756;51.354;15.754;2022-12-17T14:13:44;-3.20;1.00
13375;DHT22;6756;51.354;15.754;2022-12-17T14:17:48;-3.20;1.00
13375;DHT22;6756;51.354;15.754;2022-12-17T14:21:49;-3.30;1.00
13375;DHT22;6756;51.354;15.754;2022-12-17T14:25:51;-3.30;1.00
13375;DHT22;6756;51.354;15.754;2022-12-17T14:29:52;-3.30;1.00
13375;DHT22;6756;51.354;15.754;2022-12-17T14:34:06;-3.40;1.00
13375;DHT22;6756;51.354;15.754;2022-12-17T14:38:16;-3.40;1.00
13375;DHT22;6756;51.354;15.754;2022-12-17T14:42:24;-3.40;1.00
13375;DHT22;6756;51.354;15.754;2022-12-17T14:46:27;-3.40;1.00
13375;DHT22;6756;51.354;15.754;2022-12-17T14:50:32;-3.40;30.60
13375;DHT22;6756;51.354;15.754;2022-12-17T14:54:33;-3.40;34.80
13375;DHT22;6756;51.354;15.754;2022-12-17T14:58:44;-3.50;99.90
13375;DHT22;6756;51.354;15.754;2022-12-17T15:02:50;-3.50;85.30
13375;DHT22;6756;51.354;15.754;2022-12-17T15:06:53;-3.50;99.90
13375;DHT22;6756;51.354;15.754;2022-12-17T15:10:58;-3.50;15.80
13375;DHT22;6756;51.354;15.754;2022-12-17T15:14:59;-3.50;1.00
13375;DHT22;6756;51.354;15.754;2022-12-17T15:19:00;-3.50;39.10
13375;DHT22;6756;51.354;15.754;2022-12-17T15:23:02;-3.50;29.80
13375;DHT22;6756;51.354;15.754;2022-12-17T15:27:03;-3.60;1.00
13375;DHT22;6756;51.354;15.754;2022-12-17T15:31:03;-3.60;16.60
13375;DHT22;6756;51.354;15.754;2022-12-17T15:35:05;-3.60;99.30
13375;DHT22;6756;51.354;15.754;2022-12-17T15:39:06;-3.60;99.90
13375;DHT22;6756;51.354;15.754;2022-12-17T15:43:10;-3.60;99.90
13375;DHT22;6756;51.354;15.754;2022-12-17T15:47:11;-3.70;92.70
13375;DHT22;6756;51.354;15.754;2022-12-17T15:51:12;-3.70;99.90
13375;DHT22;6756;51.354;15.754;2022-12-17T15:55:14;-3.80;99.90
13375;DHT22;6756;51.354;15.754;2022-12-17T15:59:15;-3.80;99.90
13375;DHT22;6756;51.354;15.754;2022-12-17T16:03:16;-3.80;99.90
13375;DHT22;6756;51.354;15.754;2022-12-17T16:07:17;-3.80;99.90
13375;DHT22;6756;51.354;15.754;2022-12-17T16:11:17;-3.80;98.70
13375;DHT22;6756;51.354;15.754;2022-12-17T16:15:18;-3.90;99.90
13375;DHT22;6756;51.354;15.754;2022-12-17T16:19:22;-3.90;95.90
13375;DHT22;6756;51.354;15.754;2022-12-17T16:23:23;-3.90;99.90
13375;DHT22;6756;51.354;15.754;2022-12-17T16:27:24;-3.90;99.90
13375;DHT22;6756;51.354;15.754;2022-12-17T16:31:25;-4.00;99.90
13375;DHT22;6756;51.354;15.754;2022-12-17T16:35:26;-4.00;99.90
13375;DHT22;6756;51.354;15.754;2022-12-17T16:39:30;-4.00;99.90
13375;DHT22;6756;51.354;15.754;2022-12-17T16:43:35;-4.00;99.90
13375;DHT22;6756;51.354;15.754;2022-12-17T16:47:36;-4.00;99.90
13375;DHT22;6756;51.354;15.754;2022-12-17T16:51:39;-4.00;99.90
13375;DHT22;6756;51.354;15.754;2022-12-17T16:55:42;-4.00;99.90
13375;DHT22;6756;51.354;15.754;2022-12-17T16:59:47;-4.00;95.70
13375;DHT22;6756;51.354;15.754;2022-12-17T17:03:48;-4.00;99.90
13375;DHT22;6756;51.354;15.754;2022-12-17T17:07:49;-4.10;94.80
13375;DHT22;6756;51.354;15.754;2022-12-17T17:11:53;-4.10;71.60
13375;DHT22;6756;51.354;15.754;2022-12-17T17:15:54;-4.20;85.90
13375;DHT22;6756;51.354;15.754;2022-12-17T17:19:55;-4.20;99.90
13375;DHT22;6756;51.354;15.754;2022-12-17T17:23:58;-4.30;99.90
13375;DHT22;6756;51.354;15.754;2022-12-17T17:28:00;-4.40;99.90
13375;DHT22;6756;51.354;15.754;2022-12-17T17:32:01;-4.40;1.00
13375;DHT22;6756;51.354;15.754;2022-12-17T17:40:05;-4.30;91.60
13375;DHT22;6756;51.354;15.754;2022-12-17T17:44:09;-4.30;59.90
13375;DHT22;6756;51.354;15.754;2022-12-17T17:48:10;-4.40;99.90
13375;DHT22;6756;51.354;15.754;2022-12-17T17:52:11;-4.30;1.00
13375;DHT22;6756;51.354;15.754;2022-12-17T17:56:17;-4.40;1.00
13375;DHT22;6756;51.354;15.754;2022-12-17T18:00:18;-4.30;99.90
13375;DHT22;6756;51.354;15.754;2022-12-17T18:04:20;-4.40;1.00
13375;DHT22;6756;51.354;15.754;2022-12-17T18:08:23;-4.40;1.00
13375;DHT22;6756;51.354;15.754;2022-12-17T18:12:24;-4.30;99.90
13375;DHT22;6756;51.354;15.754;2022-12-17T18:16:47;-4.30;99.90
13375;DHT22;6756;51.354;15.754;2022-12-17T18:20:48;-4.30;99.90
13375;DHT22;6756;51.354;15.754;2022-12-17T18:24:49;-4.30;99.90
13375;DHT22;6756;51.354;15.754;2022-12-17T18:28:50;-4.20;1.00
13375;DHT22;6756;51.354;15.754;2022-12-17T18:32:51;-4.20;1.00
13375;DHT22;6756;51.354;15.754;2022-12-17T18:36:52;-4.10;1.00
13375;DHT22;6756;51.354;15.754;2022-12-17T18:40:53;-4.10;99.90
13375;DHT22;6756;51.354;15.754;2022-12-17T18:44:54;-4.10;99.90
13375;DHT22;6756;51.354;15.754;2022-12-17T18:49:00;-4.10;99.90
13375;DHT22;6756;51.354;15.754;2022-12-17T18:53:01;-4.10;89.30
13375;DHT22;6756;51.354;15.754;2022-12-17T18:57:02;-4.10;99.90
13375;DHT22;6756;51.354;15.754;2022-12-17T19:01:05;-4.10;99.90
13375;DHT22;6756;51.354;15.754;2022-12-17T19:05:06;-4.10;99.90
13375;DHT22;6756;51.354;15.754;2022-12-17T19:09:14;-4.10;99.90
13375;DHT22;6756;51.354;15.754;2022-12-17T19:13:16;-4.10;99.90
13375;DHT22;6756;51.354;15.754;2022-12-17T19:17:17;-4.00;99.90
13375;DHT22;6756;51.354;15.754;2022-12-17T19:21:18;-4.00;99.90
13375;DHT22;6756;51.354;15.754;2022-12-17T19:25:19;-3.90;99.90
13375;DHT22;6756;51.354;15.754;2022-12-17T19:29:20;-3.90;1.00
13375;DHT22;6756;51.354;15.754;2022-12-17T19:33:23;-3.80;99.90
13375;DHT22;6756;51.354;15.754;2022-12-17T19:37:24;-3.80;99.90
13375;DHT22;6756;51.354;15.754;2022-12-17T19:41:26;-3.90;99.90
13375;DHT22;6756;51.354;15.754;2022-12-17T19:45:27;-3.90;1.00
13375;DHT22;6756;51.354;15.754;2022-12-17T19:49:34;-3.80;99.90
13375;DHT22;6756;51.354;15.754;2022-12-17T19:53:37;-3.80;99.90
13375;DHT22;6756;51.354;15.754;2022-12-17T19:57:38;-3.80;99.90
13375;DHT22;6756;51.354;15.754;2022-12-17T20:01:45;-3.80;99.90
13375;DHT22;6756;51.354;15.754;2022-12-17T20:05:48;-3.70;99.90
13375;DHT22;6756;51.354;15.754;2022-12-17T20:09:49;-3.70;1.00
13375;DHT22;6756;51.354;15.754;2022-12-17T20:18:00;-3.70;1.00
13375;DHT22;6756;51.354;15.754;2022-12-17T20:22:03;-3.60;1.00
13375;DHT22;6756;51.354;15.754;2022-12-17T20:26:06;-3.60;1.00
13375;DHT22;6756;51.354;15.754;2022-12-17T20:30:08;-3.50;1.00
13375;DHT22;6756;51.354;15.754;2022-12-17T20:34:13;-3.50;99.90
13375;DHT22;6756;51.354;15.754;2022-12-17T20:38:16;-3.40;99.90
13375;DHT22;6756;51.354;15.754;2022-12-17T20:42:17;-3.40;99.90
13375;DHT22;6756;51.354;15.754;2022-12-17T20:46:20;-3.40;99.90
13375;DHT22;6756;51.354;15.754;2022-12-17T20:50:21;-3.40;1.00
13375;DHT22;6756;51.354;15.754;2022-12-17T20:54:23;-3.50;1.00
13375;DHT22;6756;51.354;15.754;2022-12-17T20:58:24;-3.50;1.00
13375;DHT22;6756;51.354;15.754;2022-12-17T21:02:25;-3.60;11.20
13375;DHT22;6756;51.354;15.754;2022-12-17T21:06:29;-3.50;46.70
13375;DHT22;6756;51.354;15.754;2022-12-17T21:10:34;-3.50;49.10
13375;DHT22;6756;51.354;15.754;2022-12-17T21:14:35;-3.50;1.00
13375;DHT22;6756;51.354;15.754;2022-12-17T21:18:36;-3.40;1.00
13375;DHT22;6756;51.354;15.754;2022-12-17T21:22:37;-3.40;1.00
13375;DHT22;6756;51.354;15.754;2022-12-17T21:26:41;-3.40;1.00
13375;DHT22;6756;51.354;15.754;2022-12-17T21:30:43;-3.30;1.00
13375;DHT22;6756;51.354;15.754;2022-12-17T21:34:47;-3.20;1.00
13375;DHT22;6756;51.354;15.754;2022-12-17T21:38:50;-3.20;99.90
13375;DHT22;6756;51.354;15.754;2022-12-17T21:42:51;-3.20;99.90
13375;DHT22;6756;51.354;15.754;2022-12-17T21:47:01;-3.10;99.90
13375;DHT22;6756;51.354;15.754;2022-12-17T21:51:06;-3.20;99.90
13375;DHT22;6756;51.354;15.754;2022-12-17T21:55:08;-3.20;99.90
13375;DHT22;6756;51.354;15.754;2022-12-17T21:59:10;-3.20;99.90
13375;DHT22;6756;51.354;15.754;2022-12-17T22:03:11;-3.20;99.90
13375;DHT22;6756;51.354;15.754;2022-12-17T22:07:11;-3.20;99.90
13375;DHT22;6756;51.354;15.754;2022-12-17T22:11:14;-3.20;99.90
13375;DHT22;6756;51.354;15.754;2022-12-17T22:15:17;-3.20;99.90
13375;DHT22;6756;51.354;15.754;2022-12-17T22:19:20;-3.20;99.90
13375;DHT22;6756;51.354;15.754;2022-12-17T22:23:22;-3.20;99.90
13375;DHT22;6756;51.354;15.754;2022-12-17T22:27:23;-3.20;71.60
13375;DHT22;6756;51.354;15.754;2022-12-17T22:31:24;-3.40;94.80
13375;DHT22;6756;51.354;15.754;2022-12-17T22:35:44;-3.40;99.90
13375;DHT22;6756;51.354;15.754;2022-12-17T22:39:45;-3.40;99.90
13375;DHT22;6756;51.354;15.754;2022-12-17T22:43:46;-3.30;99.90
13375;DHT22;6756;51.354;15.754;2022-12-17T22:47:47;-3.40;91.60
13375;DHT22;6756;51.354;15.754;2022-12-17T22:51:48;-3.40;99.90
13375;DHT22;6756;51.354;15.754;2022-12-17T22:55:50;-3.30;93.80
13375;DHT22;6756;51.354;15.754;2022-12-17T22:59:54;-3.30;56.20
13375;DHT22;6756;51.354;15.754;2022-12-17T23:03:56;-3.30;36.30
13375;DHT22;6756;51.354;15.754;2022-12-17T23:07:58;-3.30;1.10
13375;DHT22;6756;51.354;15.754;2022-12-17T23:11:59;-3.30;1.00
13375;DHT22;6756;51.354;15.754;2022-12-17T23:16:22;-3.40;1.00
13375;DHT22;6756;51.354;15.754;2022-12-17T23:20:24;-3.60;1.00
13375;DHT22;6756;51.354;15.754;2022-12-17T23:24:25;-3.80;99.90
13375;DHT22;6756;51.354;15.754;2022-12-17T23:28:26;-3.70;99.90
13375;DHT22;6756;51.354;15.754;2022-12-17T23:32:27;-3.70;99.90
13375;DHT22;6756;51.354;15.754;2022-12-17T23:36:28;-3.60;99.90
13375;DHT22;6756;51.354;15.754;2022-12-17T23:40:30;-3.60;99.90
13375;DHT22;6756;51.354;15.754;2022-12-17T23:44:31;-3.50;99.90
13375;DHT22;6756;51.354;15.754;2022-12-17T23:48:37;-3.50;99.90
13375;DHT22;6756;51.354;15.754;2022-12-17T23:52:38;-3.50;99.90
13375;DHT22;6756;51.354;15.754;2022-12-17T23:56:39;-3.40;99.90
